Time;durP1;ratioP1;P1;durP2;ratioP2;P2;SDS_P1;SDS_P2;PMS_P1;PMS_P2;Temp;Humidity;BMP_temperature;BMP_pressure;BME280_temperature;BME280_humidity;BME280_pressure;Samples;Min_cycle;Max_cycle;Signal;HPM_P1;HPM_P2
2022/07/19 00:00:04;;;;;;;12.25;9.02;;;20.70;99.90;;;;;;5045620;28;20049;-60
2022/07/19 00:02:30;;;;;;;9.55;7.57;;;20.70;99.90;;;;;;5045957;28;20033;-60
2022/07/19 00:04:55;;;;;;;9.52;7.82;;;20.80;99.90;;;;;;5045131;28;20440;-60
2022/07/19 00:07:21;;;;;;;9.65;6.82;;;20.70;99.90;;;;;;5046583;28;20124;-60
2022/07/19 00:09:47;;;;;;;9.48;7.38;;;20.70;99.90;;;;;;5045658;28;20048;-60
2022/07/19 00:12:13;;;;;;;11.07;7.28;;;20.70;99.90;;;;;;5045700;28;20076;-60
2022/07/19 00:14:39;;;;;;;7.65;6.43;;;20.70;99.90;;;;;;5045935;28;20097;-60
2022/07/19 00:17:05;;;;;;;7.93;6.45;;;20.80;99.90;;;;;;5045843;28;20049;-60
2022/07/19 00:19:31;;;;;;;11.23;6.75;;;20.80;99.90;;;;;;5045276;28;20048;-60
2022/07/19 00:21:56;;;;;;;8.77;7.20;;;20.70;99.90;;;;;;5045714;28;20044;-60
2022/07/19 00:24:22;;;;;;;11.23;7.18;;;20.80;99.90;;;;;;5046202;28;20551;-60
2022/07/19 00:26:47;;;;;;;9.10;7.03;;;20.70;99.90;;;;;;5044953;28;20167;-60
2022/07/19 00:29:13;;;;;;;11.25;7.00;;;20.70;99.90;;;;;;5047634;28;20068;-60
2022/07/19 00:31:39;;;;;;;10.98;6.93;;;20.60;99.90;;;;;;5048723;28;20492;-60
2022/07/19 00:34:04;;;;;;;19.15;7.05;;;20.60;99.90;;;;;;5049297;28;20037;-60
2022/07/19 00:36:30;;;;;;;7.25;6.13;;;20.60;99.90;;;;;;5049174;28;20467;-60
2022/07/19 00:38:56;;;;;;;8.13;6.22;;;20.70;99.90;;;;;;5048267;28;20621;-60
2022/07/19 00:41:21;;;;;;;7.38;6.43;;;20.70;99.90;;;;;;5049882;28;20048;-60
2022/07/19 00:43:47;;;;;;;9.18;6.72;;;20.60;99.90;;;;;;5048820;28;20055;-60
2022/07/19 00:46:18;;;;;;;7.03;6.07;;;20.60;99.90;;;;;;5048680;28;20452;-60
2022/07/19 00:48:44;;;;;;;11.10;6.13;;;20.60;99.90;;;;;;5048880;28;20479;-60
2022/07/19 00:51:12;;;;;;;10.48;7.47;;;20.60;99.90;;;;;;5047907;28;20154;-60
2022/07/19 00:53:39;;;;;;;8.90;6.57;;;20.60;99.90;;;;;;5048348;28;20099;-60
2022/07/19 00:56:08;;;;;;;7.13;6.00;;;20.60;99.90;;;;;;5048580;28;20057;-60
2022/07/19 00:58:34;;;;;;;9.55;6.25;;;20.60;99.90;;;;;;5048932;28;20048;-60
2022/07/19 01:01:02;;;;;;;7.97;5.07;;;20.60;99.90;;;;;;5047682;28;20067;-60
2022/07/19 01:03:28;;;;;;;5.88;5.25;;;20.60;99.90;;;;;;5048949;28;20044;-60
2022/07/19 01:05:54;;;;;;;5.85;5.25;;;20.60;99.90;;;;;;5048525;28;20442;-60
2022/07/19 01:08:20;;;;;;;6.20;5.60;;;20.60;99.90;;;;;;5048834;28;20037;-60
2022/07/19 01:10:45;;;;;;;6.63;5.53;;;20.60;99.90;;;;;;5048505;28;20106;-60
2022/07/19 01:13:14;;;;;;;12.48;5.45;;;20.60;99.90;;;;;;5048607;28;20045;-60
2022/07/19 01:15:41;;;;;;;6.45;5.10;;;20.60;99.90;;;;;;5047988;28;20049;-60
2022/07/19 01:18:08;;;;;;;6.00;5.40;;;20.50;99.90;;;;;;5048325;28;20072;-60
2022/07/19 01:20:34;;;;;;;7.70;6.07;;;20.50;99.90;;;;;;5048691;28;20052;-60
2022/07/19 01:23:00;;;;;;;6.43;5.38;;;20.40;99.90;;;;;;5047611;28;20037;-60
2022/07/19 01:25:32;;;;;;;11.48;5.05;;;20.40;99.90;;;;;;5048473;28;20567;-60
2022/07/19 01:27:58;;;;;;;;;;;20.40;99.90;;;;;;5047098;28;20080;-60
2022/07/19 01:30:25;;;;;;;5.68;4.65;;;20.40;99.90;;;;;;5048445;28;19964;-60
2022/07/19 01:32:52;;;;;;;5.80;5.20;;;20.40;99.90;;;;;;5048427;28;20440;-60
2022/07/19 01:35:19;;;;;;;5.95;5.35;;;20.40;99.90;;;;;;5047150;28;20076;-60
2022/07/19 01:37:45;;;;;;;8.68;5.55;;;20.40;99.90;;;;;;5048384;28;20053;-60
2022/07/19 01:40:13;;;;;;;5.95;5.07;;;20.30;99.90;;;;;;5047100;28;20048;-60
2022/07/19 01:42:39;;;;;;;5.72;5.15;;;20.30;99.90;;;;;;5047329;28;20068;-60
2022/07/19 01:45:08;;;;;;;6.47;5.18;;;20.30;99.90;;;;;;5047666;28;20080;-60
2022/07/19 01:47:34;;;;;;;7.68;5.45;;;20.20;99.90;;;;;;5048174;28;20052;-60
2022/07/19 01:49:59;;;;;;;5.03;4.63;;;20.10;99.90;;;;;;5046597;28;20357;-60
2022/07/19 01:52:25;;;;;;;7.28;5.22;;;20.10;99.90;;;;;;5047799;28;20403;-60
2022/07/19 01:54:51;;;;;;;5.30;4.80;;;20.10;99.90;;;;;;5047842;28;20393;-60
2022/07/19 01:57:16;;;;;;;6.55;4.97;;;20.10;99.90;;;;;;5046776;28;20049;-60
2022/07/19 01:59:42;;;;;;;10.32;5.60;;;20.00;99.90;;;;;;5047491;28;20049;-60
2022/07/19 02:02:07;;;;;;;7.40;5.55;;;19.90;99.90;;;;;;5047376;28;20395;-60
2022/07/19 02:04:33;;;;;;;9.65;4.82;;;20.10;99.90;;;;;;5047036;28;20135;-60
2022/07/19 02:06:59;;;;;;;5.55;4.32;;;19.90;99.90;;;;;;5047277;28;20088;-60
2022/07/19 02:09:25;;;;;;;5.82;5.18;;;19.90;99.90;;;;;;5047698;28;20491;-60
2022/07/19 02:11:50;;;;;;;7.35;5.38;;;19.90;99.90;;;;;;5047040;28;20413;-60
2022/07/19 02:14:16;;;;;;;5.78;5.15;;;19.90;99.90;;;;;;5047630;28;20127;-60
2022/07/19 02:16:42;;;;;;;7.82;5.32;;;19.90;99.90;;;;;;5047427;28;20072;-60
2022/07/19 02:19:08;;;;;;;6.93;5.03;;;19.90;99.90;;;;;;5046519;28;20135;-60
2022/07/19 02:21:34;;;;;;;8.95;5.88;;;19.90;99.90;;;;;;5047783;28;20112;-60
2022/07/19 02:24:00;;;;;;;8.25;4.78;;;19.90;99.90;;;;;;5046146;28;20040;-60
2022/07/19 02:26:26;;;;;;;5.70;4.90;;;19.80;99.90;;;;;;5047493;28;20053;-59
2022/07/19 02:28:52;;;;;;;9.15;5.38;;;19.90;99.90;;;;;;5047469;28;20064;-60
2022/07/19 02:31:18;;;;;;;6.85;5.35;;;19.80;99.90;;;;;;5045591;28;20078;-60
2022/07/19 02:33:44;;;;;;;5.05;4.45;;;19.80;99.90;;;;;;5047351;28;20130;-60
2022/07/19 02:36:10;;;;;;;6.93;5.03;;;19.70;99.90;;;;;;5046957;28;20036;-60
2022/07/19 02:38:35;;;;;;;6.25;5.57;;;19.70;99.90;;;;;;5046245;28;20087;-60
2022/07/19 02:41:01;;;;;;;6.03;5.43;;;19.60;99.90;;;;;;5046735;28;20103;-60
2022/07/19 02:43:27;;;;;;;6.63;5.45;;;19.60;99.90;;;;;;5046864;28;20463;-60
2022/07/19 02:45:53;;;;;;;9.00;4.80;;;19.70;99.90;;;;;;5046460;28;20508;-60
2022/07/19 02:48:19;;;;;;;6.57;5.55;;;19.70;99.90;;;;;;5062699;28;20037;-60
2022/07/19 02:50:45;;;;;;;5.28;4.78;;;19.70;99.90;;;;;;5047179;28;20037;-60
2022/07/19 02:53:10;;;;;;;7.22;5.47;;;19.70;99.90;;;;;;5045441;28;20036;-60
2022/07/19 02:55:36;;;;;;;9.32;5.03;;;19.70;99.90;;;;;;5046929;28;20549;-60
2022/07/19 02:58:02;;;;;;;10.50;6.10;;;19.60;99.90;;;;;;5046008;28;20053;-60
2022/07/19 03:00:28;;;;;;;8.75;5.05;;;19.60;99.90;;;;;;5045879;28;20080;-60
2022/07/19 03:02:54;;;;;;;5.78;5.15;;;19.60;99.90;;;;;;5046517;28;20084;-59
2022/07/19 03:05:20;;;;;;;7.97;5.65;;;19.60;99.90;;;;;;5047200;28;20095;-60
2022/07/19 03:07:46;;;;;;;7.38;6.50;;;19.50;99.90;;;;;;5045740;28;20049;-60
2022/07/19 03:10:11;;;;;;;5.65;5.03;;;19.50;99.90;;;;;;5046241;28;20429;-60
2022/07/19 03:12:37;;;;;;;7.35;6.20;;;19.50;99.90;;;;;;5046476;28;20400;-60
2022/07/19 03:15:04;;;;;;;6.20;5.60;;;19.50;99.90;;;;;;5045238;28;20033;-60
2022/07/19 03:17:30;;;;;;;7.93;5.57;;;19.50;99.90;;;;;;5046437;28;20424;-60
2022/07/19 03:19:55;;;;;;;9.85;5.45;;;19.50;99.90;;;;;;5046164;28;20075;-60
2022/07/19 03:22:21;;;;;;;7.18;5.60;;;19.40;99.90;;;;;;5046109;28;20076;-60
2022/07/19 03:24:47;;;;;;;8.55;5.68;;;19.50;99.90;;;;;;5046080;28;20116;-59
2022/07/19 03:27:12;;;;;;;8.00;5.18;;;19.50;99.90;;;;;;5046778;28;20048;-60
2022/07/19 03:29:38;;;;;;;6.47;5.32;;;19.50;99.90;;;;;;5044029;28;20033;-60
2022/07/19 03:32:04;;;;;;;7.20;5.28;;;19.50;99.90;;;;;;5045782;28;20033;-60
2022/07/19 03:34:29;;;;;;;9.43;5.80;;;19.50;99.90;;;;;;5045866;28;20114;-60
2022/07/19 03:36:55;;;;;;;7.72;5.38;;;19.40;99.90;;;;;;5045860;28;20171;-60
2022/07/19 03:39:21;;;;;;;6.05;5.22;;;19.40;99.90;;;;;;5046807;28;20052;-60
2022/07/19 03:41:47;;;;;;;9.05;5.70;;;19.40;99.90;;;;;;5045211;28;20129;-60
2022/07/19 03:44:13;;;;;;;8.80;5.43;;;19.40;99.90;;;;;;5061272;28;20052;-60
2022/07/19 03:46:39;;;;;;;5.97;5.22;;;19.40;99.90;;;;;;5046323;28;20123;-60
2022/07/19 03:49:04;;;;;;;8.43;6.10;;;19.40;99.90;;;;;;5045276;28;20476;-60
2022/07/19 03:51:30;;;;;;;6.55;5.32;;;19.40;99.90;;;;;;5046144;28;20049;-60
2022/07/19 03:53:55;;;;;;;7.70;5.07;;;19.40;99.90;;;;;;5046169;28;20041;-60
2022/07/19 03:56:21;;;;;;;5.90;5.25;;;19.30;99.90;;;;;;5045550;28;20140;-59
2022/07/19 03:58:50;;;;;;;8.82;4.93;;;19.30;99.90;;;;;;5045658;28;20063;-59
2022/07/19 04:01:16;;;;;;;7.45;5.70;;;19.40;99.90;;;;;;5046038;28;20200;-60
2022/07/19 04:03:42;;;;;;;7.43;5.35;;;19.30;99.90;;;;;;5046583;28;20140;-60
2022/07/19 04:06:10;;;;;;;7.82;6.13;;;19.30;99.90;;;;;;5049801;28;20041;-60
2022/07/19 04:08:36;;;;;;;10.00;5.97;;;19.30;99.90;;;;;;5050244;28;20088;-60
2022/07/19 04:11:03;;;;;;;7.93;5.50;;;19.40;99.90;;;;;;5049029;28;20045;-60
2022/07/19 04:13:29;;;;;;;8.65;5.30;;;19.30;99.90;;;;;;5049681;28;20045;-59
2022/07/19 04:15:55;;;;;;;7.68;5.80;;;19.30;99.90;;;;;;5049819;28;20449;-59
2022/07/19 04:18:20;;;;;;;7.88;5.13;;;19.30;99.90;;;;;;5049947;28;20340;-59
2022/07/19 04:20:46;;;;;;;8.05;5.78;;;19.30;99.90;;;;;;5049329;28;20404;-60
2022/07/19 04:23:11;;;;;;;7.65;5.28;;;19.30;99.90;;;;;;5049827;28;20500;-58
2022/07/19 04:25:37;;;;;;;6.65;5.18;;;19.30;99.90;;;;;;5048895;28;20115;-60
2022/07/19 04:28:03;;;;;;;6.90;5.97;;;19.30;99.90;;;;;;5049119;28;20040;-59
2022/07/19 04:30:29;;;;;;;8.18;5.13;;;19.30;99.90;;;;;;5049695;28;20052;-60
2022/07/19 04:32:55;;;;;;;6.93;5.25;;;19.30;99.90;;;;;;5048537;28;20049;-60
2022/07/19 04:35:20;;;;;;;7.05;5.35;;;19.30;99.90;;;;;;5049958;28;20423;-60
2022/07/19 04:37:46;;;;;;;9.40;5.57;;;19.30;99.90;;;;;;5048412;28;20045;-60
2022/07/19 04:40:12;;;;;;;7.57;5.40;;;19.30;99.90;;;;;;5049169;28;20047;-60
2022/07/19 04:42:38;;;;;;;9.48;5.78;;;19.30;99.90;;;;;;5049114;28;20499;-59
2022/07/19 04:45:05;;;;;;;7.60;5.43;;;19.30;99.90;;;;;;5048375;28;20033;-60
2022/07/19 04:47:31;;;;;;;6.55;5.63;;;19.30;99.90;;;;;;5048912;28;20451;-60
2022/07/19 04:49:57;;;;;;;9.32;5.35;;;19.40;99.90;;;;;;5049052;28;20128;-60
2022/07/19 04:52:22;;;;;;;7.85;5.97;;;19.40;99.90;;;;;;5048993;28;20128;-59
2022/07/19 04:54:48;;;;;;;6.97;5.03;;;19.40;99.90;;;;;;5048900;28;20077;-60
2022/07/19 04:57:14;;;;;;;6.57;5.50;;;19.40;99.90;;;;;;5048750;28;20132;-60
2022/07/19 04:59:40;;;;;;;11.73;5.35;;;19.50;99.90;;;;;;5048601;28;20080;-60
2022/07/19 05:02:06;;;;;;;6.20;5.20;;;19.60;99.90;;;;;;5048751;28;20049;-60
2022/07/19 05:04:32;;;;;;;6.95;5.22;;;19.60;99.90;;;;;;5049049;28;20051;-61
2022/07/19 05:06:58;;;;;;;6.47;5.35;;;19.60;99.90;;;;;;5047889;28;20053;-60
2022/07/19 05:09:25;;;;;;;5.32;4.72;;;19.60;99.90;;;;;;5049033;28;20091;-60
2022/07/19 05:11:51;;;;;;;7.18;5.60;;;19.70;99.90;;;;;;5048816;28;20067;-60
2022/07/19 05:14:17;;;;;;;7.00;5.53;;;19.80;99.90;;;;;;5047995;28;20049;-60
2022/07/19 05:16:43;;;;;;;6.55;4.70;;;19.80;99.90;;;;;;5047997;28;20245;-60
2022/07/19 05:19:09;;;;;;;5.82;4.85;;;19.70;99.90;;;;;;5048372;28;20128;-60
2022/07/19 05:21:34;;;;;;;6.90;5.05;;;19.80;99.90;;;;;;5047850;28;20090;-60
2022/07/19 05:24:00;;;;;;;11.32;5.88;;;19.80;99.90;;;;;;5048214;28;20080;-60
2022/07/19 05:26:26;;;;;;;8.05;5.70;;;19.80;99.90;;;;;;5047153;28;20404;-60
2022/07/19 05:28:51;;;;;;;5.30;4.80;;;19.90;99.90;;;;;;5047989;28;20513;-60
2022/07/19 05:31:17;;;;;;;6.30;4.97;;;19.80;99.90;;;;;;5048605;28;20066;-60
2022/07/19 05:33:42;;;;;;;6.95;5.00;;;20.00;99.90;;;;;;5048301;28;20033;-60
2022/07/19 05:36:10;;;;;;;5.07;4.50;;;20.00;99.90;;;;;;5047201;28;20060;-60
2022/07/19 05:38:38;;;;;;;5.38;4.68;;;20.00;99.90;;;;;;5048326;28;20200;-60
2022/07/19 05:41:04;;;;;;;6.97;4.80;;;20.00;99.90;;;;;;5046992;28;20045;-60
2022/07/19 05:43:30;;;;;;;6.47;4.68;;;20.10;99.90;;;;;;5048300;28;20177;-60
2022/07/19 05:45:56;;;;;;;5.10;4.60;;;20.10;99.90;;;;;;5048023;28;20085;-60
2022/07/19 05:48:21;;;;;;;7.07;4.65;;;20.10;99.90;;;;;;5048148;28;20040;-60
2022/07/19 05:50:47;;;;;;;6.80;5.28;;;20.30;99.90;;;;;;5047646;28;20041;-60
2022/07/19 05:53:13;;;;;;;6.60;5.10;;;20.20;99.90;;;;;;5048440;28;20045;-60
2022/07/19 05:55:39;;;;;;;7.30;4.40;;;20.30;99.90;;;;;;5047195;28;20041;-60
2022/07/19 05:58:04;;;;;;;7.38;4.78;;;20.30;99.90;;;;;;5047777;28;20052;-60
2022/07/19 06:00:30;;;;;;;5.68;4.13;;;20.40;99.90;;;;;;5047794;28;20053;-60
2022/07/19 06:02:56;;;;;;;9.82;4.68;;;20.40;99.90;;;;;;5046724;28;20488;-60
2022/07/19 06:05:21;;;;;;;6.05;4.90;;;20.50;99.90;;;;;;5048275;28;20103;-60
2022/07/19 06:07:47;;;;;;;7.03;4.50;;;20.60;99.90;;;;;;5063183;28;20127;-60
2022/07/19 06:10:12;;;;;;;6.25;4.80;;;20.60;99.90;;;;;;5047087;28;20107;-60
2022/07/19 06:12:38;;;;;;;5.80;4.80;;;20.70;99.90;;;;;;5047882;28;20167;-60
2022/07/19 06:15:04;;;;;;;6.07;4.47;;;20.70;99.90;;;;;;5047406;28;20451;-60
2022/07/19 06:17:30;;;;;;;6.60;4.43;;;20.80;99.90;;;;;;5046831;28;20044;-60
2022/07/19 06:19:56;;;;;;;21.67;6.85;;;20.90;99.90;;;;;;5047210;28;20049;-60
2022/07/19 06:22:21;;;;;;;57.78;9.90;;;20.90;99.90;;;;;;5048085;28;20048;-60
2022/07/19 06:24:47;;;;;;;18.83;5.68;;;21.00;99.90;;;;;;5046298;28;20127;-60
2022/07/19 06:27:12;;;;;;;12.50;5.45;;;21.10;99.90;;;;;;5047808;28;20294;-60
2022/07/19 06:29:38;;;;;;;9.80;4.60;;;21.20;99.90;;;;;;5047503;28;20508;-60
2022/07/19 06:32:04;;;;;;;9.70;4.53;;;21.20;99.90;;;;;;5046355;28;20036;-60
2022/07/19 06:34:29;;;;;;;4.35;3.95;;;21.30;99.90;;;;;;5047387;28;20120;-60
2022/07/19 06:36:55;;;;;;;6.05;4.85;;;21.40;99.90;;;;;;5046912;28;20044;-60
2022/07/19 06:39:20;;;;;;;7.55;4.30;;;21.40;99.90;;;;;;5046936;28;20049;-60
2022/07/19 06:41:47;;;;;;;9.82;4.60;;;21.50;99.90;;;;;;5047169;28;20420;-60
2022/07/19 06:44:13;;;;;;;10.27;4.63;;;21.60;99.90;;;;;;5046265;28;20547;-60
2022/07/19 06:46:39;;;;;;;5.90;4.25;;;21.70;99.90;;;;;;5047164;28;20041;-60
2022/07/19 06:49:04;;;;;;;5.50;4.72;;;21.80;99.90;;;;;;5046697;28;20036;-60
2022/07/19 06:51:30;;;;;;;6.82;4.32;;;21.80;99.90;;;;;;5046300;28;20053;-60
2022/07/19 06:53:55;;;;;;;9.30;4.22;;;21.90;99.90;;;;;;5046703;28;20067;-60
2022/07/19 06:56:21;;;;;;;7.05;4.50;;;22.00;99.90;;;;;;5047395;28;20056;-60
2022/07/19 06:58:47;;;;;;;8.85;4.45;;;22.00;99.90;;;;;;5045540;28;20418;-60
2022/07/19 07:01:13;;;;;;;5.45;3.92;;;22.10;99.90;;;;;;5047036;28;20037;-60
2022/07/19 07:03:39;;;;;;;6.15;4.10;;;22.20;99.90;;;;;;5047129;28;20045;-60
2022/07/19 07:06:06;;;;;;;5.20;4.50;;;22.30;99.90;;;;;;5046048;28;20819;-60
2022/07/19 07:08:31;;;;;;;4.68;3.95;;;22.40;99.90;;;;;;5046609;28;20407;-60
2022/07/19 07:10:57;;;;;;;5.35;4.20;;;22.40;99.90;;;;;;5046363;28;20053;-60
2022/07/19 07:13:23;;;;;;;5.65;3.80;;;22.50;99.90;;;;;;5046553;28;20045;-60
2022/07/19 07:15:48;;;;;;;5.20;3.70;;;22.70;99.90;;;;;;5046318;28;20171;-60
2022/07/19 07:18:14;;;;;;;5.32;3.88;;;22.70;99.90;;;;;;5046762;28;20080;-60
2022/07/19 07:20:40;;;;;;;3.85;3.45;;;22.80;99.90;;;;;;5045921;28;20089;-60
2022/07/19 07:23:06;;;;;;;7.53;4.28;;;23.00;99.90;;;;;;5046444;28;20526;-60
2022/07/19 07:25:32;;;;;;;5.38;3.88;;;23.00;99.90;;;;;;5062264;28;20045;-60
2022/07/19 07:27:57;;;;;;;10.05;3.30;;;23.20;99.90;;;;;;5045466;28;20128;-60
2022/07/19 07:30:23;;;;;;;9.35;4.20;;;23.30;99.90;;;;;;5046603;28;20037;-60
2022/07/19 07:32:49;;;;;;;9.55;4.07;;;23.40;99.90;;;;;;5046752;28;20037;-60
2022/07/19 07:35:14;;;;;;;5.82;3.75;;;23.60;99.90;;;;;;5045598;28;20109;-60
2022/07/19 07:37:40;;;;;;;8.77;4.13;;;23.50;99.90;;;;;;5046852;28;20498;-60
2022/07/19 07:40:06;;;;;;;6.15;3.45;;;23.70;99.90;;;;;;5050060;28;20041;-60
2022/07/19 07:42:32;;;;;;;5.63;4.00;;;23.80;99.90;;;;;;5049874;28;20499;-60
2022/07/19 07:45:00;;;;;;;11.85;3.67;;;23.80;99.90;;;;;;5050237;28;20048;-60
2022/07/19 07:47:25;;;;;;;5.65;3.35;;;24.00;99.90;;;;;;5050592;28;20088;-60
2022/07/19 07:49:51;;;;;;;6.35;3.35;;;24.10;99.90;;;;;;5050214;28;20087;-60
2022/07/19 07:52:17;;;;;;;4.50;3.40;;;24.20;99.90;;;;;;5050083;28;20094;-60
2022/07/19 07:54:42;;;;;;;7.13;3.60;;;24.30;99.90;;;;;;5049713;28;20055;-60
2022/07/19 07:57:08;;;;;;;5.32;3.47;;;24.40;99.90;;;;;;5049929;28;20056;-60
2022/07/19 07:59:34;;;;;;;5.32;3.80;;;24.50;99.90;;;;;;5050120;28;20119;-60
2022/07/19 08:02:00;;;;;;;5.15;3.67;;;24.60;99.90;;;;;;5049005;28;20040;-60
2022/07/19 08:04:26;;;;;;;3.80;2.92;;;24.70;99.90;;;;;;5050293;28;20047;-60
2022/07/19 08:06:52;;;;;;;10.15;3.08;;;24.90;99.90;;;;;;5050191;28;20464;-60
2022/07/19 08:09:18;;;;;;;5.00;3.20;;;25.00;99.90;;;;;;5049399;28;20081;-60
2022/07/19 08:11:43;;;;;;;4.65;3.20;;;25.10;99.90;;;;;;5049606;28;20048;-60
2022/07/19 08:14:09;;;;;;;4.32;3.33;;;25.20;99.90;;;;;;5049754;28;20064;-60
2022/07/19 08:16:35;;;;;;;6.97;3.15;;;25.30;99.90;;;;;;5049184;28;20044;-60
2022/07/19 08:19:01;;;;;;;2.75;2.55;;;25.40;99.90;;;;;;5049636;28;20041;-60
2022/07/19 08:21:26;;;;;;;6.88;3.20;;;25.50;99.90;;;;;;5049643;28;20498;-60
2022/07/19 08:23:53;;;;;;;5.78;2.72;;;25.50;99.90;;;;;;5049693;28;20052;-60
2022/07/19 08:26:20;;;;;;;5.68;3.20;;;25.60;99.90;;;;;;5048981;28;20079;-60
2022/07/19 08:28:47;;;;;;;3.38;2.78;;;25.70;99.90;;;;;;5049401;28;20538;-60
2022/07/19 08:31:14;;;;;;;3.33;2.70;;;25.80;99.90;;;;;;5049153;28;20103;-60
2022/07/19 08:33:40;;;;;;;4.03;2.47;;;25.90;99.90;;;;;;5049390;28;20056;-60
2022/07/19 08:36:06;;;;;;;10.20;3.00;;;26.00;99.90;;;;;;5049463;28;20212;-60
2022/07/19 08:38:32;;;;;;;4.20;2.92;;;26.10;99.90;;;;;;5048957;28;20053;-60
2022/07/19 08:40:59;;;;;;;5.82;2.53;;;26.20;99.90;;;;;;5048957;28;20055;-60
2022/07/19 08:43:26;;;;;;;6.03;3.10;;;26.30;99.90;;;;;;5049678;28;20056;-60
2022/07/19 08:45:52;;;;;;;4.53;2.70;;;26.40;99.90;;;;;;5048909;28;20044;-60
2022/07/19 08:48:19;;;;;;;5.60;2.58;;;26.40;99.90;;;;;;5049326;28;20458;-60
2022/07/19 08:50:47;;;;;;;4.07;2.75;;;26.60;99.90;;;;;;5049381;28;20053;-60
2022/07/19 08:53:14;;;;;;;4.47;2.70;;;26.70;99.90;;;;;;5049166;28;20118;-60
2022/07/19 08:55:40;;;;;;;2.70;2.25;;;26.80;99.90;;;;;;5049157;28;20115;-60
2022/07/19 08:58:06;;;;;;;2.83;2.50;;;26.90;99.90;;;;;;5048260;28;20459;-60
2022/07/19 09:00:33;;;;;;;6.47;2.67;;;27.00;99.90;;;;;;5049197;28;20052;-60
2022/07/19 09:03:02;;;;;;;5.90;2.67;;;27.10;99.90;;;;;;5048940;28;20043;-60
2022/07/19 09:05:28;;;;;;;2.63;2.30;;;27.20;99.90;;;;;;5048446;28;20052;-60
2022/07/19 09:08:12;;;;;;;2.85;2.45;;;27.30;99.90;;;;;;5048968;28;20412;-60
2022/07/19 09:10:41;;;;;;;3.92;2.45;;;27.50;99.70;;;;;;5049057;28;20404;-60
2022/07/19 09:13:12;;;;;;;6.13;2.33;;;27.50;99.90;;;;;;5048057;28;20036;-60
2022/07/19 09:15:49;;;;;;;7.43;2.40;;;27.70;99.90;;;;;;5048999;28;20048;-60
2022/07/19 09:18:27;;;;;;;2.58;2.08;;;27.80;98.20;;;;;;5048965;28;20088;-61
2022/07/19 09:20:55;;;;;;;2.95;2.38;;;27.90;97.70;;;;;;5048427;28;20045;-61
2022/07/19 09:23:22;;;;;;;2.72;2.17;;;28.00;97.40;;;;;;5064379;28;20045;-61
2022/07/19 09:25:53;;;;;;;3.35;2.42;;;28.10;96.80;;;;;;5048437;28;20098;-61
2022/07/19 09:28:21;;;;;;;3.58;2.45;;;28.20;94.20;;;;;;5052756;28;20040;-61
2022/07/19 09:30:53;;;;;;;4.40;2.10;;;28.30;94.60;;;;;;5058118;28;20120;-61
2022/07/19 09:33:24;;;;;;;2.85;2.08;;;28.40;94.20;;;;;;5057845;28;20114;-61
2022/07/19 09:35:57;;;;;;;4.10;2.03;;;28.50;93.60;;;;;;5055986;28;20032;-61
2022/07/19 09:38:29;;;;;;;4.38;2.15;;;28.60;92.40;;;;;;5048823;28;20045;-61
2022/07/19 09:41:16;;;;;;;3.28;1.77;;;28.70;92.70;;;;;;5047665;28;20041;-61
2022/07/19 09:44:02;;;;;;;2.95;1.80;;;28.90;86.60;;;;;;5048592;28;20044;-61
2022/07/19 09:46:34;;;;;;;2.72;2.10;;;29.00;87.80;;;;;;5048330;28;20119;-61
2022/07/19 09:49:06;;;;;;;2.42;1.92;;;29.00;89.80;;;;;;5047250;28;20084;-61
2022/07/19 09:51:34;;;;;;;4.93;1.92;;;29.20;86.40;;;;;;5048187;28;20182;-61
2022/07/19 09:54:01;;;;;;;6.88;2.17;;;29.20;86.10;;;;;;5047844;28;20041;-61
2022/07/19 09:56:29;;;;;;;3.42;2.10;;;29.30;85.20;;;;;;5047308;28;20597;-61
2022/07/19 09:58:57;;;;;;;7.28;2.05;;;29.40;83.30;;;;;;5047660;28;20090;-61
2022/07/19 10:01:23;;;;;;;5.22;1.98;;;29.40;82.30;;;;;;5047273;28;20435;-61
2022/07/19 10:03:56;;;;;;;5.45;1.80;;;29.50;81.20;;;;;;5048302;28;20036;-61
2022/07/19 10:06:23;;;;;;;1.92;1.55;;;29.50;79.60;;;;;;5048432;28;20049;-61
2022/07/19 10:08:50;;;;;;;1.70;1.60;;;29.60;79.00;;;;;;5047051;28;20044;-61
2022/07/19 10:11:16;;;;;;;2.55;2.00;;;29.70;77.80;;;;;;5047750;28;20091;-61
2022/07/19 10:13:42;;;;;;;3.20;1.60;;;29.70;77.10;;;;;;5047938;28;20076;-61
2022/07/19 10:16:15;;;;;;;1.73;1.63;;;29.80;77.20;;;;;;5046551;28;20123;-61
2022/07/19 10:18:58;;;;;;;4.65;1.77;;;29.90;76.70;;;;;;5047790;28;20072;-61
2022/07/19 10:21:24;;;;;;;6.05;1.70;;;30.00;73.40;;;;;;5047593;28;20119;-61
2022/07/19 10:23:51;;;;;;;2.80;1.98;;;30.10;73.70;;;;;;5047438;28;20129;-61
2022/07/19 10:26:41;;;;;;;5.00;1.90;;;30.20;71.40;;;;;;5047385;28;20044;-61
2022/07/19 10:29:15;;;;;;;2.22;1.40;;;30.20;66.40;;;;;;5047303;28;20051;-61
2022/07/19 10:31:43;;;;;;;3.63;1.77;;;30.20;67.70;;;;;;5047258;28;20094;-61
2022/07/19 10:34:21;;;;;;;3.28;1.85;;;30.30;69.90;;;;;;5046970;28;20087;-61
2022/07/19 10:36:49;;;;;;;3.78;1.83;;;30.50;68.20;;;;;;5046080;28;20533;-61
2022/07/19 10:39:18;;;;;;;2.22;1.60;;;30.60;68.60;;;;;;5047231;28;20488;-61
2022/07/19 10:42:09;;;;;;;6.07;1.98;;;30.60;66.90;;;;;;5047267;28;20479;-61
2022/07/19 10:45:01;;;;;;;2.05;1.80;;;30.70;67.90;;;;;;5046456;28;20040;-61
2022/07/19 10:47:30;;;;;;;4.22;1.60;;;30.80;64.40;;;;;;5046934;28;20132;-61
2022/07/19 10:50:01;;;;;;;2.42;1.63;;;30.90;65.80;;;;;;5046890;28;20049;-61
2022/07/19 10:52:27;;;;;;;;;;;30.90;65.10;;;;;;5046799;28;20071;-61
2022/07/19 10:55:18;;;;;;;1.60;1.50;;;31.00;65.80;;;;;;5047313;28;19921;-61
2022/07/19 10:58:05;;;;;;;1.83;1.60;;;31.00;63.10;;;;;;5046028;28;20472;-61
2022/07/19 11:00:40;;;;;;;5.93;1.98;;;31.20;64.90;;;;;;5046786;28;20053;-61
2022/07/19 11:03:21;;;;;;;2.67;1.90;;;31.20;63.90;;;;;;5046444;28;20136;-61
2022/07/19 11:05:48;;;;;;;7.90;2.10;;;31.30;60.00;;;;;;5046080;28;20108;-61
2022/07/19 11:08:14;;;;;;;1.67;1.45;;;31.30;60.80;;;;;;5046717;28;20064;-61
2022/07/19 11:10:40;;;;;;;2.40;1.83;;;31.50;61.50;;;;;;5046949;28;20546;-61
2022/07/19 11:13:06;;;;;;;3.95;1.30;;;31.50;61.60;;;;;;5044975;28;20055;-61
2022/07/19 11:15:31;;;;;;;2.63;1.45;;;31.60;61.20;;;;;;5046674;28;20124;-61
2022/07/19 11:18:07;;;;;;;2.65;1.90;;;31.60;61.50;;;;;;5046434;28;20104;-61
2022/07/19 11:20:35;;;;;;;2.55;1.55;;;31.70;60.20;;;;;;5045967;28;20044;-61
2022/07/19 11:23:06;;;;;;;2.95;1.50;;;31.80;58.80;;;;;;5046604;28;20045;-61
2022/07/19 11:25:39;;;;;;;3.17;1.60;;;31.90;59.10;;;;;;5046299;28;20060;-61
2022/07/19 11:28:04;;;;;;;2.88;1.27;;;32.00;57.60;;;;;;5046337;28;20487;-61
2022/07/19 11:30:33;;;;;;;3.38;1.73;;;32.00;58.50;;;;;;5046657;28;20045;-61
2022/07/19 11:33:02;;;;;;;3.92;1.70;;;32.10;57.80;;;;;;5045245;28;20088;-61
2022/07/19 11:35:28;;;;;;;2.03;1.52;;;32.10;57.40;;;;;;5046760;28;20360;-61
2022/07/19 11:37:56;;;;;;;2.10;1.23;;;32.10;57.30;;;;;;5046326;28;20120;-61
2022/07/19 11:40:24;;;;;;;2.55;1.50;;;32.20;56.70;;;;;;5046116;28;20040;-61
2022/07/19 11:42:51;;;;;;;1.58;1.48;;;32.30;56.20;;;;;;5046935;28;20109;-61
2022/07/19 11:45:20;;;;;;;5.50;1.63;;;32.30;55.40;;;;;;5046313;28;20500;-61
2022/07/19 11:47:48;;;;;;;5.18;1.20;;;32.40;55.60;;;;;;5045839;28;20480;-61
2022/07/19 11:50:16;;;;;;;9.13;1.40;;;32.40;55.60;;;;;;5046568;28;20566;-61
2022/07/19 11:52:52;;;;;;;5.45;1.40;;;32.50;53.70;;;;;;5046266;28;20084;-61
2022/07/19 11:55:21;;;;;;;1.50;1.25;;;32.50;53.30;;;;;;5045623;28;20060;-61
2022/07/19 11:57:47;;;;;;;4.00;1.40;;;32.60;53.10;;;;;;5045844;28;20081;-61
2022/07/19 12:00:14;;;;;;;1.65;1.10;;;32.60;53.20;;;;;;5046167;28;20044;-61
2022/07/19 12:02:58;;;;;;;1.40;0.90;;;32.70;52.70;;;;;;5045766;28;20451;-61
2022/07/19 12:05:27;;;;;;;2.78;0.98;;;32.80;52.80;;;;;;5046784;28;20045;-61
2022/07/19 12:07:57;;;;;;;2.83;1.40;;;32.80;53.70;;;;;;5045516;28;20561;-61
2022/07/19 12:10:45;;;;;;;2.10;1.17;;;33.00;52.90;;;;;;5046753;28;20037;-61
2022/07/19 12:13:14;;;;;;;1.77;1.40;;;33.00;52.10;;;;;;5046340;28;20045;-61
2022/07/19 12:15:47;;;;;;;2.22;1.10;;;33.10;52.60;;;;;;5045713;28;20041;-61
2022/07/19 12:18:14;;;;;;;2.75;1.20;;;33.10;51.90;;;;;;5046111;28;20051;-61
2022/07/19 12:20:39;;;;;;;2.60;0.90;;;33.10;52.20;;;;;;5046096;28;20053;-61
2022/07/19 12:23:13;;;;;;;3.70;1.05;;;33.20;51.80;;;;;;5044928;28;20047;-61
2022/07/19 12:25:39;;;;;;;1.05;0.95;;;33.30;50.70;;;;;;5048842;28;20040;-61
2022/07/19 12:28:05;;;;;;;2.15;1.10;;;33.40;50.70;;;;;;5049637;28;20099;-61
2022/07/19 12:30:30;;;;;;;3.35;1.40;;;33.40;52.00;;;;;;5049149;28;20044;-61
2022/07/19 12:33:10;;;;;;;1.20;1.08;;;33.50;50.70;;;;;;5049591;28;20052;-61
2022/07/19 12:35:47;;;;;;;1.60;0.88;;;33.60;49.80;;;;;;5049537;28;20048;-61
2022/07/19 12:38:13;;;;;;;1.85;1.08;;;33.70;48.10;;;;;;5048915;28;20124;-61
2022/07/19 12:40:41;;;;;;;4.60;1.05;;;33.80;48.40;;;;;;5049440;28;20040;-61
2022/07/19 12:43:09;;;;;;;2.92;1.00;;;33.80;47.80;;;;;;5048484;28;20098;-61
2022/07/19 12:45:43;;;;;;;10.13;0.90;;;33.90;48.30;;;;;;5049601;28;20041;-61